sensor_id;sensor_type;location;lat;lon;timestamp;temperature;humidity
41904;DHT22;27586;51.124;4.182;2023-04-01T00:01:30;10.70;99.90
41904;DHT22;27586;51.124;4.182;2023-04-01T00:03:56;10.70;99.90
41904;DHT22;27586;51.124;4.182;2023-04-01T00:06:22;10.50;99.90
41904;DHT22;27586;51.124;4.182;2023-04-01T00:08:48;10.50;99.90
41904;DHT22;27586;51.124;4.182;2023-04-01T00:11:15;10.50;99.90
41904;DHT22;27586;51.124;4.182;2023-04-01T00:13:41;10.50;99.90
41904;DHT22;27586;51.124;4.182;2023-04-01T00:16:07;10.60;99.90
41904;DHT22;27586;51.124;4.182;2023-04-01T00:18:33;10.70;99.90
41904;DHT22;27586;51.124;4.182;2023-04-01T00:20:59;10.60;99.90
41904;DHT22;27586;51.124;4.182;2023-04-01T00:23:24;10.60;99.90
41904;DHT22;27586;51.124;4.182;2023-04-01T00:25:50;10.50;99.90
41904;DHT22;27586;51.124;4.182;2023-04-01T00:28:17;10.60;99.90
41904;DHT22;27586;51.124;4.182;2023-04-01T00:30:43;10.60;99.90
41904;DHT22;27586;51.124;4.182;2023-04-01T00:33:09;10.60;99.90
41904;DHT22;27586;51.124;4.182;2023-04-01T00:35:35;10.60;99.90
41904;DHT22;27586;51.124;4.182;2023-04-01T00:38:00;10.60;99.90
41904;DHT22;27586;51.124;4.182;2023-04-01T00:40:31;10.60;99.90
41904;DHT22;27586;51.124;4.182;2023-04-01T00:42:57;10.60;99.90
41904;DHT22;27586;51.124;4.182;2023-04-01T00:45:36;10.60;99.90
41904;DHT22;27586;51.124;4.182;2023-04-01T00:48:07;10.70;99.90
41904;DHT22;27586;51.124;4.182;2023-04-01T00:50:35;10.60;99.90
41904;DHT22;27586;51.124;4.182;2023-04-01T00:53:02;10.70;99.90
41904;DHT22;27586;51.124;4.182;2023-04-01T00:55:32;10.70;99.90
41904;DHT22;27586;51.124;4.182;2023-04-01T00:58:00;10.70;99.90
41904;DHT22;27586;51.124;4.182;2023-04-01T01:00:27;10.70;99.90
41904;DHT22;27586;51.124;4.182;2023-04-01T01:02:53;10.70;99.90
41904;DHT22;27586;51.124;4.182;2023-04-01T01:05:26;10.70;99.90
41904;DHT22;27586;51.124;4.182;2023-04-01T01:08:03;10.70;99.90
41904;DHT22;27586;51.124;4.182;2023-04-01T01:10:34;10.80;99.90
41904;DHT22;27586;51.124;4.182;2023-04-01T01:16:12;10.80;99.90
41904;DHT22;27586;51.124;4.182;2023-04-01T01:19:36;10.70;99.90
41904;DHT22;27586;51.124;4.182;2023-04-01T01:27:18;10.70;99.90
41904;DHT22;27586;51.124;4.182;2023-04-01T01:30:00;10.70;99.90
41904;DHT22;27586;51.124;4.182;2023-04-01T01:35:16;10.70;99.90
41904;DHT22;27586;51.124;4.182;2023-04-01T01:37:46;10.80;99.90
41904;DHT22;27586;51.124;4.182;2023-04-01T01:40:13;10.70;99.90
41904;DHT22;27586;51.124;4.182;2023-04-01T01:42:44;10.70;99.90
41904;DHT22;27586;51.124;4.182;2023-04-01T01:45:13;10.70;99.90
41904;DHT22;27586;51.124;4.182;2023-04-01T01:47:40;10.70;99.90
41904;DHT22;27586;51.124;4.182;2023-04-01T01:50:08;10.70;99.90
41904;DHT22;27586;51.124;4.182;2023-04-01T01:52:34;10.80;99.90
41904;DHT22;27586;51.124;4.182;2023-04-01T01:55:00;10.80;99.90
41904;DHT22;27586;51.124;4.182;2023-04-01T01:57:31;10.70;99.90
41904;DHT22;27586;51.124;4.182;2023-04-01T02:00:09;10.70;99.90
41904;DHT22;27586;51.124;4.182;2023-04-01T02:02:44;10.60;99.90
41904;DHT22;27586;51.124;4.182;2023-04-01T02:05:14;10.60;99.90
41904;DHT22;27586;51.124;4.182;2023-04-01T02:07:44;10.60;99.90
41904;DHT22;27586;51.124;4.182;2023-04-01T02:10:12;10.60;99.90
41904;DHT22;27586;51.124;4.182;2023-04-01T02:12:39;10.50;99.90
41904;DHT22;27586;51.124;4.182;2023-04-01T02:15:12;10.50;99.90
41904;DHT22;27586;51.124;4.182;2023-04-01T02:17:43;10.60;99.90
41904;DHT22;27586;51.124;4.182;2023-04-01T02:20:22;10.60;99.90
41904;DHT22;27586;51.124;4.182;2023-04-01T02:22:51;10.60;99.90
41904;DHT22;27586;51.124;4.182;2023-04-01T02:25:25;10.60;99.90
41904;DHT22;27586;51.124;4.182;2023-04-01T02:27:53;10.60;99.90
41904;DHT22;27586;51.124;4.182;2023-04-01T02:30:21;10.60;99.90
41904;DHT22;27586;51.124;4.182;2023-04-01T02:32:48;10.50;99.90
41904;DHT22;27586;51.124;4.182;2023-04-01T02:35:15;10.50;99.90
41904;DHT22;27586;51.124;4.182;2023-04-01T02:37:42;10.50;99.90
41904;DHT22;27586;51.124;4.182;2023-04-01T02:40:12;10.50;99.90
41904;DHT22;27586;51.124;4.182;2023-04-01T02:42:38;10.70;99.90
41904;DHT22;27586;51.124;4.182;2023-04-01T02:45:04;10.60;99.90
41904;DHT22;27586;51.124;4.182;2023-04-01T02:47:30;10.70;99.90
41904;DHT22;27586;51.124;4.182;2023-04-01T02:49:56;10.70;99.90
41904;DHT22;27586;51.124;4.182;2023-04-01T02:52:33;10.70;99.90
41904;DHT22;27586;51.124;4.182;2023-04-01T02:54:58;10.70;99.90
41904;DHT22;27586;51.124;4.182;2023-04-01T02:57:24;10.70;99.90
41904;DHT22;27586;51.124;4.182;2023-04-01T02:59:50;10.70;99.90
41904;DHT22;27586;51.124;4.182;2023-04-01T03:02:17;10.70;99.90
41904;DHT22;27586;51.124;4.182;2023-04-01T03:04:43;10.80;99.90
41904;DHT22;27586;51.124;4.182;2023-04-01T03:07:09;10.70;99.90
41904;DHT22;27586;51.124;4.182;2023-04-01T03:09:36;10.70;99.90
41904;DHT22;27586;51.124;4.182;2023-04-01T03:12:02;10.70;99.90
41904;DHT22;27586;51.124;4.182;2023-04-01T03:14:28;10.70;99.90
41904;DHT22;27586;51.124;4.182;2023-04-01T03:16:53;10.70;99.90
41904;DHT22;27586;51.124;4.182;2023-04-01T03:19:20;10.70;99.90
41904;DHT22;27586;51.124;4.182;2023-04-01T03:21:46;10.70;99.90
41904;DHT22;27586;51.124;4.182;2023-04-01T03:24:11;10.70;99.90
41904;DHT22;27586;51.124;4.182;2023-04-01T03:26:37;10.70;99.90
41904;DHT22;27586;51.124;4.182;2023-04-01T03:29:03;10.60;99.90
41904;DHT22;27586;51.124;4.182;2023-04-01T03:31:28;10.60;99.90
41904;DHT22;27586;51.124;4.182;2023-04-01T03:33:54;10.70;99.90
41904;DHT22;27586;51.124;4.182;2023-04-01T03:36:20;10.70;99.90
41904;DHT22;27586;51.124;4.182;2023-04-01T03:38:46;10.60;99.90
41904;DHT22;27586;51.124;4.182;2023-04-01T03:41:16;10.60;99.90
41904;DHT22;27586;51.124;4.182;2023-04-01T03:43:42;10.50;99.90
41904;DHT22;27586;51.124;4.182;2023-04-01T03:46:08;10.50;99.90
41904;DHT22;27586;51.124;4.182;2023-04-01T03:48:34;10.50;99.90
41904;DHT22;27586;51.124;4.182;2023-04-01T03:51:00;10.50;99.90
41904;DHT22;27586;51.124;4.182;2023-04-01T03:53:26;10.50;99.90
41904;DHT22;27586;51.124;4.182;2023-04-01T03:55:52;10.50;99.90
41904;DHT22;27586;51.124;4.182;2023-04-01T03:58:18;10.40;99.90
41904;DHT22;27586;51.124;4.182;2023-04-01T04:00:44;10.50;99.90
41904;DHT22;27586;51.124;4.182;2023-04-01T04:03:09;10.50;99.90
41904;DHT22;27586;51.124;4.182;2023-04-01T04:05:35;10.50;99.90
41904;DHT22;27586;51.124;4.182;2023-04-01T04:08:01;10.50;99.90
41904;DHT22;27586;51.124;4.182;2023-04-01T04:10:27;10.60;99.90
41904;DHT22;27586;51.124;4.182;2023-04-01T04:12:54;10.60;99.90
41904;DHT22;27586;51.124;4.182;2023-04-01T04:15:20;10.50;99.90
41904;DHT22;27586;51.124;4.182;2023-04-01T04:17:46;10.50;99.90
41904;DHT22;27586;51.124;4.182;2023-04-01T04:20:12;10.50;99.90
41904;DHT22;27586;51.124;4.182;2023-04-01T04:22:38;10.50;99.90
41904;DHT22;27586;51.124;4.182;2023-04-01T04:25:04;10.50;99.90
41904;DHT22;27586;51.124;4.182;2023-04-01T04:27:30;10.50;99.90
41904;DHT22;27586;51.124;4.182;2023-04-01T04:29:55;10.50;99.90
41904;DHT22;27586;51.124;4.182;2023-04-01T04:32:21;10.50;99.90
41904;DHT22;27586;51.124;4.182;2023-04-01T04:34:47;10.50;99.90
41904;DHT22;27586;51.124;4.182;2023-04-01T04:37:12;10.50;99.90
41904;DHT22;27586;51.124;4.182;2023-04-01T04:39:38;10.50;99.90
41904;DHT22;27586;51.124;4.182;2023-04-01T04:42:05;10.50;99.90
41904;DHT22;27586;51.124;4.182;2023-04-01T04:44:30;10.60;99.90
41904;DHT22;27586;51.124;4.182;2023-04-01T04:46:56;10.50;99.90
41904;DHT22;27586;51.124;4.182;2023-04-01T04:49:21;10.50;99.90
41904;DHT22;27586;51.124;4.182;2023-04-01T04:51:47;10.50;99.90
41904;DHT22;27586;51.124;4.182;2023-04-01T04:54:13;10.50;99.90
41904;DHT22;27586;51.124;4.182;2023-04-01T04:56:39;10.50;99.90
41904;DHT22;27586;51.124;4.182;2023-04-01T04:59:05;10.50;99.90
41904;DHT22;27586;51.124;4.182;2023-04-01T05:01:32;10.40;99.90
41904;DHT22;27586;51.124;4.182;2023-04-01T05:03:59;10.40;99.90
41904;DHT22;27586;51.124;4.182;2023-04-01T05:06:25;10.40;99.90
41904;DHT22;27586;51.124;4.182;2023-04-01T05:08:51;10.50;99.90
41904;DHT22;27586;51.124;4.182;2023-04-01T05:11:19;10.50;99.90
41904;DHT22;27586;51.124;4.182;2023-04-01T05:13:46;10.50;99.90
41904;DHT22;27586;51.124;4.182;2023-04-01T05:16:15;10.40;99.90
41904;DHT22;27586;51.124;4.182;2023-04-01T05:18:41;10.40;99.90
41904;DHT22;27586;51.124;4.182;2023-04-01T05:21:08;10.40;99.90
41904;DHT22;27586;51.124;4.182;2023-04-01T05:23:34;10.40;99.90
41904;DHT22;27586;51.124;4.182;2023-04-01T05:26:08;10.40;99.90
41904;DHT22;27586;51.124;4.182;2023-04-01T05:28:35;10.40;99.90
41904;DHT22;27586;51.124;4.182;2023-04-01T05:31:01;10.40;99.90
41904;DHT22;27586;51.124;4.182;2023-04-01T05:33:27;10.40;99.90
41904;DHT22;27586;51.124;4.182;2023-04-01T05:35:54;10.40;99.90
41904;DHT22;27586;51.124;4.182;2023-04-01T05:38:20;10.40;99.90
41904;DHT22;27586;51.124;4.182;2023-04-01T05:40:45;10.30;99.90
41904;DHT22;27586;51.124;4.182;2023-04-01T05:43:11;10.40;99.90
41904;DHT22;27586;51.124;4.182;2023-04-01T05:45:37;10.30;99.90
41904;DHT22;27586;51.124;4.182;2023-04-01T05:48:03;10.40;99.90
41904;DHT22;27586;51.124;4.182;2023-04-01T05:50:30;10.40;99.90
41904;DHT22;27586;51.124;4.182;2023-04-01T05:52:55;10.30;99.90
41904;DHT22;27586;51.124;4.182;2023-04-01T05:55:21;10.40;99.90
41904;DHT22;27586;51.124;4.182;2023-04-01T05:57:47;10.50;99.90
41904;DHT22;27586;51.124;4.182;2023-04-01T06:00:15;10.40;99.90
41904;DHT22;27586;51.124;4.182;2023-04-01T06:02:41;10.50;99.90
41904;DHT22;27586;51.124;4.182;2023-04-01T06:05:18;10.40;99.90
41904;DHT22;27586;51.124;4.182;2023-04-01T06:07:44;10.40;99.90
41904;DHT22;27586;51.124;4.182;2023-04-01T06:10:19;10.40;99.90
41904;DHT22;27586;51.124;4.182;2023-04-01T06:13:09;10.30;99.90
41904;DHT22;27586;51.124;4.182;2023-04-01T06:15:57;10.30;99.90
41904;DHT22;27586;51.124;4.182;2023-04-01T06:18:52;10.40;99.90
41904;DHT22;27586;51.124;4.182;2023-04-01T06:21:44;10.40;99.90
41904;DHT22;27586;51.124;4.182;2023-04-01T06:24:36;10.30;99.90
41904;DHT22;27586;51.124;4.182;2023-04-01T06:27:20;10.40;99.90
41904;DHT22;27586;51.124;4.182;2023-04-01T06:38:31;10.40;99.90
41904;DHT22;27586;51.124;4.182;2023-04-01T06:43:57;10.40;99.90
41904;DHT22;27586;51.124;4.182;2023-04-01T06:52:13;10.40;99.90
41904;DHT22;27586;51.124;4.182;2023-04-01T06:54:44;10.40;99.90
41904;DHT22;27586;51.124;4.182;2023-04-01T06:57:32;10.50;99.90
41904;DHT22;27586;51.124;4.182;2023-04-01T07:00:01;10.40;99.90
41904;DHT22;27586;51.124;4.182;2023-04-01T07:03:13;10.50;99.90
41904;DHT22;27586;51.124;4.182;2023-04-01T07:05:34;10.60;99.90
41904;DHT22;27586;51.124;4.182;2023-04-01T07:08:04;10.60;99.90
41904;DHT22;27586;51.124;4.182;2023-04-01T07:13:04;10.60;99.90
41904;DHT22;27586;51.124;4.182;2023-04-01T07:15:36;10.60;99.90
41904;DHT22;27586;51.124;4.182;2023-04-01T07:18:14;10.70;99.90
41904;DHT22;27586;51.124;4.182;2023-04-01T07:20:42;10.70;99.90
41904;DHT22;27586;51.124;4.182;2023-04-01T07:23:22;10.70;99.90
41904;DHT22;27586;51.124;4.182;2023-04-01T07:25:53;10.70;99.90
41904;DHT22;27586;51.124;4.182;2023-04-01T07:28:20;10.80;99.90
41904;DHT22;27586;51.124;4.182;2023-04-01T07:33:58;10.80;99.90
41904;DHT22;27586;51.124;4.182;2023-04-01T07:48:18;10.90;99.90
41904;DHT22;27586;51.124;4.182;2023-04-01T07:51:02;10.90;99.90
41904;DHT22;27586;51.124;4.182;2023-04-01T07:56:00;10.90;99.90
41904;DHT22;27586;51.124;4.182;2023-04-01T07:58:45;10.90;99.90
41904;DHT22;27586;51.124;4.182;2023-04-01T08:10:04;11.10;99.90
41904;DHT22;27586;51.124;4.182;2023-04-01T08:12:54;11.10;99.90
41904;DHT22;27586;51.124;4.182;2023-04-01T08:15:48;11.10;99.90
41904;DHT22;27586;51.124;4.182;2023-04-01T08:18:26;11.20;99.90
41904;DHT22;27586;51.124;4.182;2023-04-01T08:21:00;11.10;99.90
41904;DHT22;27586;51.124;4.182;2023-04-01T08:23:31;11.10;99.90
41904;DHT22;27586;51.124;4.182;2023-04-01T08:26:09;11.20;99.90
41904;DHT22;27586;51.124;4.182;2023-04-01T08:28:45;11.20;99.90
41904;DHT22;27586;51.124;4.182;2023-04-01T08:31:37;11.30;99.90
41904;DHT22;27586;51.124;4.182;2023-04-01T08:34:13;11.40;99.90
41904;DHT22;27586;51.124;4.182;2023-04-01T08:36:50;11.50;99.90
41904;DHT22;27586;51.124;4.182;2023-04-01T08:39:45;11.50;99.90
41904;DHT22;27586;51.124;4.182;2023-04-01T08:48:12;11.60;99.90
41904;DHT22;27586;51.124;4.182;2023-04-01T08:53:38;11.70;99.90
41904;DHT22;27586;51.124;4.182;2023-04-01T08:56:23;11.80;99.90
41904;DHT22;27586;51.124;4.182;2023-04-01T09:02:10;11.80;99.90
41904;DHT22;27586;51.124;4.182;2023-04-01T09:04:43;11.80;99.90
41904;DHT22;27586;51.124;4.182;2023-04-01T09:09:57;11.80;99.90
41904;DHT22;27586;51.124;4.182;2023-04-01T09:18:20;11.90;99.90
41904;DHT22;27586;51.124;4.182;2023-04-01T09:26:51;11.80;99.90
41904;DHT22;27586;51.124;4.182;2023-04-01T09:29:49;11.70;99.90
41904;DHT22;27586;51.124;4.182;2023-04-01T09:38:54;11.60;99.90
41904;DHT22;27586;51.124;4.182;2023-04-01T09:41:32;11.70;99.90
41904;DHT22;27586;51.124;4.182;2023-04-01T09:47:01;11.60;99.90
41904;DHT22;27586;51.124;4.182;2023-04-01T10:03:46;11.70;99.90
41904;DHT22;27586;51.124;4.182;2023-04-01T10:31:12;12.20;99.90
41904;DHT22;27586;51.124;4.182;2023-04-01T10:34:13;12.20;99.90
41904;DHT22;27586;51.124;4.182;2023-04-01T10:53:58;12.00;99.90
41904;DHT22;27586;51.124;4.182;2023-04-01T10:56:42;11.90;99.90
41904;DHT22;27586;51.124;4.182;2023-04-01T11:05:32;12.00;99.90
41904;DHT22;27586;51.124;4.182;2023-04-01T11:22:20;12.20;99.90
41904;DHT22;27586;51.124;4.182;2023-04-01T11:28:06;12.00;99.90
41904;DHT22;27586;51.124;4.182;2023-04-01T11:36:19;12.20;99.90
41904;DHT22;27586;51.124;4.182;2023-04-01T11:45:13;12.10;99.90
41904;DHT22;27586;51.124;4.182;2023-04-01T11:48:07;12.00;99.90
41904;DHT22;27586;51.124;4.182;2023-04-01T11:50:51;12.10;99.90
41904;DHT22;27586;51.124;4.182;2023-04-01T11:56:00;12.20;99.90
41904;DHT22;27586;51.124;4.182;2023-04-01T12:04:00;12.20;99.90
41904;DHT22;27586;51.124;4.182;2023-04-01T12:12:42;12.50;99.90
41904;DHT22;27586;51.124;4.182;2023-04-01T12:21:23;12.60;99.90
41904;DHT22;27586;51.124;4.182;2023-04-01T12:24:25;12.60;99.90
41904;DHT22;27586;51.124;4.182;2023-04-01T12:41:39;12.40;99.90
41904;DHT22;27586;51.124;4.182;2023-04-01T12:44:31;12.50;99.90
41904;DHT22;27586;51.124;4.182;2023-04-01T12:52:12;12.50;99.90
41904;DHT22;27586;51.124;4.182;2023-04-01T12:55:47;12.40;99.90
41904;DHT22;27586;51.124;4.182;2023-04-01T13:08:33;12.70;99.90
41904;DHT22;27586;51.124;4.182;2023-04-01T13:11:13;12.70;99.90
41904;DHT22;27586;51.124;4.182;2023-04-01T13:16:31;12.50;99.90
41904;DHT22;27586;51.124;4.182;2023-04-01T13:19:08;12.40;99.90
41904;DHT22;27586;51.124;4.182;2023-04-01T13:35:35;12.30;99.90
41904;DHT22;27586;51.124;4.182;2023-04-01T13:44:00;12.40;99.90
41904;DHT22;27586;51.124;4.182;2023-04-01T13:57:50;12.60;99.90
41904;DHT22;27586;51.124;4.182;2023-04-01T14:03:30;12.50;99.90
41904;DHT22;27586;51.124;4.182;2023-04-01T14:06:17;12.50;99.90
41904;DHT22;27586;51.124;4.182;2023-04-01T14:25:03;12.60;99.90
41904;DHT22;27586;51.124;4.182;2023-04-01T14:28:14;12.50;99.90
41904;DHT22;27586;51.124;4.182;2023-04-01T14:33:35;12.30;99.90
41904;DHT22;27586;51.124;4.182;2023-04-01T14:47:41;12.40;99.90
41904;DHT22;27586;51.124;4.182;2023-04-01T14:52:39;12.40;99.90
41904;DHT22;27586;51.124;4.182;2023-04-01T14:56:07;12.40;99.90
41904;DHT22;27586;51.124;4.182;2023-04-01T14:58:16;12.40;99.90
41904;DHT22;27586;51.124;4.182;2023-04-01T15:03:30;12.40;99.90
41904;DHT22;27586;51.124;4.182;2023-04-01T15:12:22;12.40;99.90
41904;DHT22;27586;51.124;4.182;2023-04-01T15:17:45;12.30;99.90
41904;DHT22;27586;51.124;4.182;2023-04-01T15:25:39;12.00;99.90
41904;DHT22;27586;51.124;4.182;2023-04-01T15:31:15;12.00;99.90
41904;DHT22;27586;51.124;4.182;2023-04-01T15:39:00;12.00;99.90
41904;DHT22;27586;51.124;4.182;2023-04-01T15:46:57;11.90;99.90
41904;DHT22;27586;51.124;4.182;2023-04-01T15:49:46;11.80;99.90
41904;DHT22;27586;51.124;4.182;2023-04-01T16:01:11;11.70;99.90
41904;DHT22;27586;51.124;4.182;2023-04-01T16:03:50;11.80;99.90
41904;DHT22;27586;51.124;4.182;2023-04-01T16:11:48;11.50;99.90
41904;DHT22;27586;51.124;4.182;2023-04-01T16:19:52;11.50;99.90
41904;DHT22;27586;51.124;4.182;2023-04-01T16:22:40;11.40;99.90
41904;DHT22;27586;51.124;4.182;2023-04-01T16:28:07;11.40;99.90
41904;DHT22;27586;51.124;4.182;2023-04-01T16:30:46;11.30;99.90
41904;DHT22;27586;51.124;4.182;2023-04-01T16:36:04;11.30;99.90
41904;DHT22;27586;51.124;4.182;2023-04-01T16:38:43;11.30;99.90
41904;DHT22;27586;51.124;4.182;2023-04-01T16:41:20;11.30;99.90
41904;DHT22;27586;51.124;4.182;2023-04-01T16:44:19;11.20;99.90
41904;DHT22;27586;51.124;4.182;2023-04-01T16:49:46;11.20;99.90
41904;DHT22;27586;51.124;4.182;2023-04-01T16:52:29;11.20;99.90
41904;DHT22;27586;51.124;4.182;2023-04-01T16:54:59;11.10;99.90
41904;DHT22;27586;51.124;4.182;2023-04-01T16:57:50;11.10;99.90
41904;DHT22;27586;51.124;4.182;2023-04-01T17:05:50;11.10;99.90
41904;DHT22;27586;51.124;4.182;2023-04-01T17:12:10;11.20;99.90
41904;DHT22;27586;51.124;4.182;2023-04-01T17:17:49;10.90;99.90
41904;DHT22;27586;51.124;4.182;2023-04-01T17:20:29;10.70;99.90
41904;DHT22;27586;51.124;4.182;2023-04-01T17:28:37;10.90;99.90
41904;DHT22;27586;51.124;4.182;2023-04-01T17:31:14;10.90;99.90
41904;DHT22;27586;51.124;4.182;2023-04-01T17:59:11;10.00;99.90
41904;DHT22;27586;51.124;4.182;2023-04-01T18:01:51;10.10;99.90
41904;DHT22;27586;51.124;4.182;2023-04-01T18:15:11;9.70;99.90
41904;DHT22;27586;51.124;4.182;2023-04-01T18:17:42;9.60;99.90
41904;DHT22;27586;51.124;4.182;2023-04-01T18:25:54;9.60;99.90
41904;DHT22;27586;51.124;4.182;2023-04-01T18:28:42;9.50;99.90
41904;DHT22;27586;51.124;4.182;2023-04-01T18:31:17;9.50;99.90
41904;DHT22;27586;51.124;4.182;2023-04-01T18:33:48;9.40;99.90
41904;DHT22;27586;51.124;4.182;2023-04-01T18:36:39;9.40;99.90
41904;DHT22;27586;51.124;4.182;2023-04-01T18:39:09;9.40;99.90
41904;DHT22;27586;51.124;4.182;2023-04-01T18:44:30;9.60;99.90
41904;DHT22;27586;51.124;4.182;2023-04-01T18:50:57;9.60;99.90
41904;DHT22;27586;51.124;4.182;2023-04-01T18:56:00;9.50;99.90
41904;DHT22;27586;51.124;4.182;2023-04-01T18:58:35;9.40;99.90
41904;DHT22;27586;51.124;4.182;2023-04-01T19:06:48;9.60;99.90
41904;DHT22;27586;51.124;4.182;2023-04-01T19:09:22;9.60;99.90
41904;DHT22;27586;51.124;4.182;2023-04-01T19:17:36;9.60;99.90
41904;DHT22;27586;51.124;4.182;2023-04-01T19:25:58;9.40;99.90
41904;DHT22;27586;51.124;4.182;2023-04-01T19:31:16;9.40;99.90
41904;DHT22;27586;51.124;4.182;2023-04-01T19:36:45;9.30;99.90
41904;DHT22;27586;51.124;4.182;2023-04-01T19:42:03;9.30;99.90
41904;DHT22;27586;51.124;4.182;2023-04-01T19:50:40;9.50;99.90
41904;DHT22;27586;51.124;4.182;2023-04-01T19:52:47;9.40;99.90
41904;DHT22;27586;51.124;4.182;2023-04-01T20:00:52;9.40;99.90
41904;DHT22;27586;51.124;4.182;2023-04-01T20:03:39;9.40;99.90
41904;DHT22;27586;51.124;4.182;2023-04-01T20:06:16;9.40;99.90
41904;DHT22;27586;51.124;4.182;2023-04-01T20:33:48;9.60;99.90
41904;DHT22;27586;51.124;4.182;2023-04-01T20:42:34;9.50;99.90
41904;DHT22;27586;51.124;4.182;2023-04-01T20:48:40;9.50;99.90
41904;DHT22;27586;51.124;4.182;2023-04-01T20:51:16;9.50;99.90
41904;DHT22;27586;51.124;4.182;2023-04-01T21:02:05;9.50;99.90
41904;DHT22;27586;51.124;4.182;2023-04-01T21:15:48;9.50;99.90
41904;DHT22;27586;51.124;4.182;2023-04-01T21:18:32;9.50;99.90
41904;DHT22;27586;51.124;4.182;2023-04-01T21:21:26;9.50;99.90
41904;DHT22;27586;51.124;4.182;2023-04-01T21:27:01;9.50;99.90
41904;DHT22;27586;51.124;4.182;2023-04-01T21:29:42;9.50;99.90
41904;DHT22;27586;51.124;4.182;2023-04-01T21:38:21;9.60;99.90
41904;DHT22;27586;51.124;4.182;2023-04-01T21:41:11;9.60;99.90
41904;DHT22;27586;51.124;4.182;2023-04-01T22:06:25;9.50;99.90
41904;DHT22;27586;51.124;4.182;2023-04-01T22:14:44;9.40;99.90
41904;DHT22;27586;51.124;4.182;2023-04-01T22:20:27;9.40;99.90
41904;DHT22;27586;51.124;4.182;2023-04-01T22:25:56;9.40;99.90
41904;DHT22;27586;51.124;4.182;2023-04-01T22:28:46;9.30;99.90
41904;DHT22;27586;51.124;4.182;2023-04-01T22:31:23;9.30;99.90
41904;DHT22;27586;51.124;4.182;2023-04-01T22:42:44;9.20;99.90
41904;DHT22;27586;51.124;4.182;2023-04-01T22:50:32;9.20;99.90
41904;DHT22;27586;51.124;4.182;2023-04-01T22:53:17;9.20;99.90
41904;DHT22;27586;51.124;4.182;2023-04-01T22:55:47;9.10;99.90
41904;DHT22;27586;51.124;4.182;2023-04-01T22:58:25;9.10;99.90
41904;DHT22;27586;51.124;4.182;2023-04-01T23:00:59;9.10;99.90
41904;DHT22;27586;51.124;4.182;2023-04-01T23:03:40;9.20;99.90
41904;DHT22;27586;51.124;4.182;2023-04-01T23:06:09;9.10;99.90
41904;DHT22;27586;51.124;4.182;2023-04-01T23:11:55;9.10;99.90
41904;DHT22;27586;51.124;4.182;2023-04-01T23:19:59;9.10;99.90
41904;DHT22;27586;51.124;4.182;2023-04-01T23:38:16;8.80;99.90
41904;DHT22;27586;51.124;4.182;2023-04-01T23:40:42;8.80;99.90
41904;DHT22;27586;51.124;4.182;2023-04-01T23:43:23;8.80;99.90
41904;DHT22;27586;51.124;4.182;2023-04-01T23:45:49;8.80;99.90
41904;DHT22;27586;51.124;4.182;2023-04-01T23:48:16;8.80;99.90
41904;DHT22;27586;51.124;4.182;2023-04-01T23:50:44;8.80;99.90
41904;DHT22;27586;51.124;4.182;2023-04-01T23:53:21;8.80;99.90
41904;DHT22;27586;51.124;4.182;2023-04-01T23:55:49;8.70;99.90
41904;DHT22;27586;51.124;4.182;2023-04-01T23:58:27;8.70;99.90
